Time;durP1;ratioP1;P1;durP2;ratioP2;P2;SDS_P1;SDS_P2;PMS_P1;PMS_P2;Temp;Humidity;BMP_temperature;BMP_pressure;BME280_temperature;BME280_humidity;BME280_pressure;Samples;Min_cycle;Max_cycle;Signal;HPM_P1;HPM_P2
2022/02/06 00:00:00;;;;;;;120.37;79.10;;;;;;;;;;5007792;28;20026;-60
2022/02/06 00:02:30;;;;;;;119.23;79.37;;;;;;;;;;5015149;28;20071;-60
2022/02/06 00:04:56;;;;;;;118.93;81.53;;;;;;;;;;5014373;28;20026;-60
2022/02/06 00:07:22;;;;;;;118.27;78.60;;;;;;;;;;5005842;28;20555;-60
2022/02/06 00:09:48;;;;;;;115.47;79.37;;;;;;;;;;5013324;28;20757;-60
2022/02/06 00:12:15;;;;;;;117.00;78.03;;;;;;;;;;5014943;28;20538;-60
2022/02/06 00:14:41;;;;;;;120.30;79.23;;;;;;;;;;5014242;28;20407;-60
2022/02/06 00:17:08;;;;;;;118.60;80.00;;;;;;;;;;5015143;28;20356;-60
2022/02/06 00:19:35;;;;;;;119.47;80.87;;;;;;;;;;5013323;28;20022;-60
2022/02/06 00:22:03;;;;;;;120.63;81.53;;;;;;;;;;5008299;28;20368;-60
2022/02/06 00:24:39;;;;;;;119.87;79.20;;;;;;;;;;5007860;28;20021;-60
2022/02/06 00:27:10;;;;;;;121.07;78.70;;;;;;;;;;5008366;28;20496;-60
2022/02/06 00:29:50;;;;;;;113.60;78.77;;;;;;;;;;5013527;28;20072;-60
2022/02/06 00:43:04;;;;;;;121.90;80.03;;;;;;;;;;4998099;28;20037;-60
2022/02/06 00:45:30;;;;;;;118.50;81.17;;;;;;;;;;5014092;28;20026;-60
2022/02/06 00:47:56;;;;;;;126.73;82.07;;;;;;;;;;5013340;28;20046;-59
2022/02/06 00:50:22;;;;;;;117.93;79.83;;;;;;;;;;5010491;28;20075;-60
2022/02/06 00:53:21;;;;;;;114.43;76.83;;;;;;;;;;5013151;28;20101;-60
2022/02/06 00:55:40;;;;;;;119.27;78.80;;;;;;;;;;5003031;28;20443;-59
2022/02/06 00:58:06;;;;;;;123.13;80.30;;;;;;;;;;5009688;28;20037;-59
2022/02/06 01:00:32;;;;;;;123.70;81.43;;;;;;;;;;5012543;28;20388;-59
2022/02/06 01:02:58;;;;;;;114.83;78.97;;;;;;;;;;5012844;28;20439;-59
2022/02/06 01:05:24;;;;;;;116.40;78.90;;;;;;;;;;5002672;28;20169;-59
2022/02/06 01:07:53;;;;;;;120.87;78.20;;;;;;;;;;5014001;28;20036;-60
2022/02/06 01:10:19;;;;;;;117.27;79.47;;;;;;;;;;5013336;28;20026;-59
2022/02/06 01:12:52;;;;;;;121.17;78.03;;;;;;;;;;5001951;28;20092;-59
2022/02/06 01:15:23;;;;;;;121.93;80.03;;;;;;;;;;4996181;28;20467;-59
2022/02/06 01:18:01;;;;;;;116.03;77.20;;;;;;;;;;5002853;28;20057;-59
2022/02/06 01:20:41;;;;;;;113.33;77.47;;;;;;;;;;5014246;28;20442;-59
2022/02/06 01:23:22;;;;;;;116.33;78.30;;;;;;;;;;5002441;28;20030;-59
2022/02/06 01:25:56;;;;;;;117.73;78.90;;;;;;;;;;5014020;28;20112;-60
2022/02/06 01:28:34;;;;;;;;;;;;;;;;;;5004719;28;20028;-60
2022/02/06 01:31:28;;;;;;;122.53;79.73;;;;;;;;;;5012506;28;19913;-60
2022/02/06 01:33:58;;;;;;;114.20;77.60;;;;;;;;;;5013330;28;20475;-60
2022/02/06 01:36:49;;;;;;;113.30;78.57;;;;;;;;;;5009790;28;20022;-60
2022/02/06 01:39:38;;;;;;;120.13;81.37;;;;;;;;;;5017579;28;20068;-60
2022/02/06 01:42:07;;;;;;;119.93;78.57;;;;;;;;;;5024780;28;20041;-60
2022/02/06 01:44:54;;;;;;;122.97;80.90;;;;;;;;;;5012165;28;20033;-59
2022/02/06 02:14:02;;;;;;;114.80;77.03;;;;;;;;;;5011843;28;20134;-59
2022/02/06 02:28:20;;;;;;;119.80;77.80;;;;;;;;;;5012110;28;20117;-60
2022/02/06 02:33:31;;;;;;;110.17;78.43;;;;;;;;;;5003518;28;20057;-59
2022/02/06 02:46:40;;;;;;;111.82;74.97;;;;;;;;;;5012095;28;20105;-60
2022/02/06 02:49:09;;;;;;;112.17;75.03;;;;;;;;;;5011262;28;20128;-60
2022/02/06 02:51:41;;;;;;;113.50;76.87;;;;;;;;;;5012066;28;20463;-60
2022/02/06 02:54:11;;;;;;;111.77;76.70;;;;;;;;;;5009910;28;20030;-60
2022/02/06 03:02:09;;;;;;;109.03;75.27;;;;;;;;;;5010508;28;20045;-60
2022/02/06 03:04:27;;;;;;;113.93;76.60;;;;;;;;;;5010111;28;20026;-60
2022/02/06 03:06:54;;;;;;;108.57;73.77;;;;;;;;;;5010678;28;20030;-60
2022/02/06 03:09:22;;;;;;;110.50;73.63;;;;;;;;;;5009892;28;20490;-60
2022/02/06 03:11:48;;;;;;;111.57;74.07;;;;;;;;;;5013364;28;20041;-60
2022/02/06 03:14:19;;;;;;;113.67;75.30;;;;;;;;;;5006213;28;20025;-60
2022/02/06 03:16:54;;;;;;;110.77;75.20;;;;;;;;;;5013893;28;20032;-60
2022/02/06 03:19:21;;;;;;;109.97;73.77;;;;;;;;;;5011533;28;20097;-60
2022/02/06 03:21:47;;;;;;;111.63;74.73;;;;;;;;;;5004708;28;20081;-59
2022/02/06 03:26:42;;;;;;;111.47;73.73;;;;;;;;;;5010739;28;20038;-59
2022/02/06 03:29:08;;;;;;;123.87;78.33;;;;;;;;;;5012964;28;20037;-60
2022/02/06 03:31:36;;;;;;;118.60;75.30;;;;;;;;;;5014448;28;20057;-60
2022/02/06 03:34:12;;;;;;;114.13;77.33;;;;;;;;;;5011621;28;20030;-59
2022/02/06 03:36:38;;;;;;;117.00;75.97;;;;;;;;;;5014822;28;20096;-60
2022/02/06 03:39:04;;;;;;;119.73;76.33;;;;;;;;;;5015601;28;20026;-60
2022/02/06 03:41:40;;;;;;;120.90;78.10;;;;;;;;;;5013942;28;20084;-59
2022/02/06 03:44:19;;;;;;;118.07;77.90;;;;;;;;;;5013928;28;20026;-59
2022/02/06 03:46:57;;;;;;;121.63;76.40;;;;;;;;;;5015300;28;20079;-60
2022/02/06 03:49:31;;;;;;;122.93;79.53;;;;;;;;;;5015025;28;20403;-60
2022/02/06 03:51:57;;;;;;;;;;;;;;;;;;5012209;28;20030;-60
2022/02/06 03:54:23;;;;;;;143.20;86.43;;;;;;;;;;5014414;28;19910;-60
2022/02/06 03:56:52;;;;;;;132.67;84.50;;;;;;;;;;5013392;28;20034;-60
2022/02/06 03:59:18;;;;;;;137.60;85.93;;;;;;;;;;5014837;28;20489;-59
2022/02/06 04:01:44;;;;;;;140.43;86.40;;;;;;;;;;5007478;28;20065;-60
2022/02/06 04:04:10;;;;;;;138.23;84.43;;;;;;;;;;5014196;28;20026;-59
2022/02/06 04:06:38;;;;;;;141.23;86.00;;;;;;;;;;5013789;28;20112;-60
2022/02/06 04:09:09;;;;;;;131.20;83.87;;;;;;;;;;5014742;28;20056;-60
2022/02/06 04:11:46;;;;;;;127.93;82.30;;;;;;;;;;5013395;28;20035;-60
2022/02/06 04:14:24;;;;;;;118.87;79.17;;;;;;;;;;5009255;28;20018;-60
2022/02/06 04:17:01;;;;;;;132.07;81.77;;;;;;;;;;5013672;28;20517;-59
2022/02/06 04:19:27;;;;;;;121.70;82.17;;;;;;;;;;5015363;28;20056;-60
2022/02/06 04:21:53;;;;;;;131.20;82.27;;;;;;;;;;5008056;28;20034;-60
2022/02/06 04:24:19;;;;;;;129.50;82.57;;;;;;;;;;5003438;28;20053;-59
2022/02/06 04:26:45;;;;;;;129.40;82.37;;;;;;;;;;5013334;28;20041;-59
2022/02/06 04:29:12;;;;;;;133.03;81.97;;;;;;;;;;5014843;28;20033;-59
2022/02/06 04:31:40;;;;;;;128.93;80.40;;;;;;;;;;5012890;28;20113;-59
2022/02/06 04:34:06;;;;;;;124.20;78.73;;;;;;;;;;5014932;28;20026;-59
2022/02/06 04:36:41;;;;;;;117.10;76.63;;;;;;;;;;5013243;28;20026;-59
2022/02/06 04:39:38;;;;;;;123.43;77.07;;;;;;;;;;5015214;28;20053;-59
2022/02/06 04:44:51;;;;;;;128.30;79.10;;;;;;;;;;5009268;28;20037;-59
2022/02/06 05:30:26;;;;;;;111.37;72.03;;;;;;;;;;5012030;28;20056;-60
2022/02/06 05:35:21;;;;;;;109.07;72.73;;;;;;;;;;5011441;28;20384;-60
2022/02/06 05:37:47;;;;;;;111.93;75.87;;;;;;;;;;5013737;28;20057;-60
2022/02/06 05:40:13;;;;;;;115.77;75.90;;;;;;;;;;5012766;28;20395;-59
2022/02/06 05:42:39;;;;;;;115.17;74.40;;;;;;;;;;5013142;28;20049;-60
2022/02/06 05:45:06;;;;;;;116.27;75.77;;;;;;;;;;5011863;28;20467;-60
2022/02/06 05:47:33;;;;;;;111.27;73.57;;;;;;;;;;5002766;28;20049;-60
2022/02/06 05:49:59;;;;;;;122.97;77.10;;;;;;;;;;5013014;28;20034;-60
2022/02/06 05:52:25;;;;;;;112.67;76.73;;;;;;;;;;5012383;28;20030;-60
2022/02/06 05:54:52;;;;;;;113.93;75.13;;;;;;;;;;5013214;28;20030;-59
2022/02/06 05:57:18;;;;;;;115.03;76.93;;;;;;;;;;5011584;28;20442;-60
2022/02/06 05:59:44;;;;;;;118.90;76.87;;;;;;;;;;5010729;28;20165;-60
2022/02/06 06:02:10;;;;;;;119.73;79.50;;;;;;;;;;5011644;28;20038;-60
2022/02/06 06:04:36;;;;;;;125.10;81.73;;;;;;;;;;5010455;28;20088;-60
2022/02/06 06:07:03;;;;;;;118.30;79.07;;;;;;;;;;5009404;28;20507;-59
2022/02/06 06:09:29;;;;;;;121.87;79.60;;;;;;;;;;5012456;28;20474;-60
2022/02/06 06:11:55;;;;;;;123.47;82.73;;;;;;;;;;5012643;28;20034;-60
2022/02/06 06:14:21;;;;;;;127.03;81.60;;;;;;;;;;5010231;28;20582;-60
2022/02/06 06:16:47;;;;;;;137.07;86.37;;;;;;;;;;5012120;28;20037;-60
2022/02/06 06:19:13;;;;;;;135.77;85.20;;;;;;;;;;5012451;28;20036;-59
2022/02/06 06:21:43;;;;;;;140.53;88.63;;;;;;;;;;5010976;28;20034;-59
2022/02/06 06:24:15;;;;;;;149.47;90.40;;;;;;;;;;5013332;28;20081;-59
2022/02/06 06:26:41;;;;;;;140.80;88.27;;;;;;;;;;5011410;28;20029;-60
2022/02/06 06:29:07;;;;;;;149.13;89.03;;;;;;;;;;4993417;28;20034;-59
2022/02/06 06:31:33;;;;;;;155.97;93.27;;;;;;;;;;5008650;28;20498;-59
2022/02/06 06:33:59;;;;;;;152.10;90.33;;;;;;;;;;5012458;28;20030;-59
2022/02/06 06:36:26;;;;;;;147.43;88.93;;;;;;;;;;5010709;28;20137;-60
2022/02/06 06:38:54;;;;;;;149.47;87.30;;;;;;;;;;5011668;28;20026;-60
2022/02/06 06:41:20;;;;;;;154.00;90.53;;;;;;;;;;5012140;28;20487;-60
2022/02/06 06:43:46;;;;;;;150.23;91.50;;;;;;;;;;5011737;28;20108;-60
2022/02/06 06:46:12;;;;;;;152.60;90.23;;;;;;;;;;5013965;28;20136;-61
2022/02/06 06:48:39;;;;;;;142.27;91.07;;;;;;;;;;5014419;28;20049;-60
2022/02/06 06:51:05;;;;;;;139.53;87.17;;;;;;;;;;5007176;28;20041;-60
2022/02/06 06:53:33;;;;;;;145.47;89.67;;;;;;;;;;5027879;28;20081;-60
2022/02/06 06:56:05;;;;;;;141.60;86.60;;;;;;;;;;5014055;28;20072;-60
2022/02/06 06:58:38;;;;;;;150.77;87.40;;;;;;;;;;5007959;28;20026;-60
2022/02/06 07:03:31;;;;;;;134.97;83.60;;;;;;;;;;5016575;28;20022;-61
2022/02/06 07:05:57;;;;;;;143.47;86.63;;;;;;;;;;5015626;28;20038;-61
2022/02/06 07:08:24;;;;;;;144.60;86.47;;;;;;;;;;5016610;28;20018;-61
2022/02/06 07:10:50;;;;;;;138.30;87.03;;;;;;;;;;5014525;28;20029;-61
2022/02/06 07:13:23;;;;;;;151.30;88.37;;;;;;;;;;4996776;28;20476;-60
2022/02/06 07:15:49;;;;;;;148.97;89.10;;;;;;;;;;5010112;28;20038;-60
2022/02/06 07:18:15;;;;;;;153.20;89.07;;;;;;;;;;5016310;28;20022;-60
2022/02/06 07:20:41;;;;;;;151.27;90.50;;;;;;;;;;5014612;28;20554;-60
2022/02/06 07:23:09;;;;;;;154.43;93.33;;;;;;;;;;4997480;28;20038;-60
2022/02/06 07:25:37;;;;;;;155.80;89.27;;;;;;;;;;5011597;28;20162;-60
2022/02/06 07:28:06;;;;;;;151.07;89.13;;;;;;;;;;5016216;28;20543;-60
2022/02/06 07:30:32;;;;;;;146.80;91.00;;;;;;;;;;5010225;28;20484;-60
2022/02/06 07:32:58;;;;;;;152.37;87.83;;;;;;;;;;5004753;28;20109;-60
2022/02/06 07:35:24;;;;;;;144.90;86.37;;;;;;;;;;5010480;28;20471;-60
2022/02/06 07:37:55;;;;;;;148.33;88.60;;;;;;;;;;5015599;28;20057;-59
2022/02/06 07:40:21;;;;;;;144.40;86.90;;;;;;;;;;5014763;28;20570;-61
2022/02/06 07:42:47;;;;;;;143.93;88.00;;;;;;;;;;5016101;28;20065;-60
2022/02/06 07:45:14;;;;;;;142.47;84.60;;;;;;;;;;5015248;28;20037;-60
2022/02/06 07:47:43;;;;;;;144.20;88.60;;;;;;;;;;5015522;28;20530;-60
2022/02/06 07:50:09;;;;;;;158.80;90.33;;;;;;;;;;5015022;28;20028;-60
2022/02/06 07:52:54;;;;;;;146.40;86.87;;;;;;;;;;5015793;28;20028;-60
2022/02/06 07:55:20;;;;;;;146.57;85.40;;;;;;;;;;5013862;28;20037;-61
2022/02/06 07:57:46;;;;;;;139.60;85.40;;;;;;;;;;5013264;28;20048;-60
2022/02/06 08:00:12;;;;;;;145.47;85.70;;;;;;;;;;5013666;28;20029;-60
2022/02/06 08:02:38;;;;;;;139.40;87.30;;;;;;;;;;5014179;28;20096;-60
2022/02/06 08:05:05;;;;;;;147.30;86.33;;;;;;;;;;5012802;28;20029;-60
2022/02/06 08:07:32;;;;;;;142.03;85.10;;;;;;;;;;5011984;28;20124;-60
2022/02/06 08:10:00;;;;;;;136.20;82.63;;;;;;;;;;5011424;28;20026;-59
2022/02/06 08:12:34;;;;;;;152.17;84.97;;;;;;;;;;5015058;28;20026;-60
2022/02/06 08:15:03;;;;;;;144.15;88.22;;;;;;;;;;5014595;28;20030;-60
2022/02/06 08:17:35;;;;;;;141.53;83.90;;;;;;;;;;5014410;28;20426;-60
2022/02/06 08:20:02;;;;;;;130.80;83.13;;;;;;;;;;5013521;28;20022;-61
2022/02/06 08:22:28;;;;;;;129.93;81.40;;;;;;;;;;5014462;28;20372;-60
2022/02/06 08:24:55;;;;;;;134.97;81.10;;;;;;;;;;5013114;28;20025;-60
2022/02/06 08:27:22;;;;;;;129.23;80.17;;;;;;;;;;5008833;28;20081;-60
2022/02/06 08:29:48;;;;;;;123.83;77.27;;;;;;;;;;5004692;28;20037;-60
2022/02/06 08:32:15;;;;;;;118.00;74.03;;;;;;;;;;5013636;28;20060;-60
2022/02/06 08:34:42;;;;;;;121.87;77.90;;;;;;;;;;5013023;28;20577;-60
2022/02/06 08:37:08;;;;;;;120.90;74.33;;;;;;;;;;5013714;28;20018;-60
2022/02/06 08:39:35;;;;;;;122.70;74.37;;;;;;;;;;5013728;28;20375;-59
2022/02/06 08:42:02;;;;;;;118.13;76.13;;;;;;;;;;5014139;28;20038;-60
2022/02/06 08:44:28;;;;;;;122.57;77.00;;;;;;;;;;5013835;28;20046;-60
2022/02/06 08:46:55;;;;;;;126.80;75.77;;;;;;;;;;5013229;28;20072;-60
2022/02/06 08:49:21;;;;;;;125.57;79.63;;;;;;;;;;5027566;28;20038;-59
2022/02/06 08:51:47;;;;;;;132.80;79.63;;;;;;;;;;5014715;28;20034;-60
2022/02/06 08:54:14;;;;;;;132.60;79.20;;;;;;;;;;5011729;28;20026;-60
2022/02/06 08:56:40;;;;;;;142.77;79.20;;;;;;;;;;5014534;28;20037;-59
2022/02/06 08:59:10;;;;;;;135.10;79.97;;;;;;;;;;5013709;28;20076;-60
2022/02/06 09:01:37;;;;;;;132.03;79.83;;;;;;;;;;5014247;28;20041;-59
2022/02/06 09:04:04;;;;;;;135.03;79.57;;;;;;;;;;5012217;28;20010;-59
2022/02/06 09:06:31;;;;;;;146.50;80.67;;;;;;;;;;5014368;28;20125;-59
2022/02/06 09:08:58;;;;;;;141.23;82.33;;;;;;;;;;5013449;28;20518;-60
2022/02/06 09:11:25;;;;;;;144.70;84.17;;;;;;;;;;5014296;28;20026;-59
2022/02/06 09:13:52;;;;;;;152.70;83.97;;;;;;;;;;5012756;28;20030;-59
2022/02/06 09:16:18;;;;;;;151.37;84.83;;;;;;;;;;5014350;28;20114;-59
2022/02/06 09:18:44;;;;;;;156.10;86.47;;;;;;;;;;5013291;28;20033;-59
2022/02/06 09:21:10;;;;;;;145.43;83.93;;;;;;;;;;5014012;28;20077;-59
2022/02/06 09:23:36;;;;;;;158.93;88.77;;;;;;;;;;5009334;28;20034;-60
2022/02/06 09:26:02;;;;;;;146.17;84.53;;;;;;;;;;5013923;28;20033;-58
2022/02/06 09:28:28;;;;;;;153.63;84.27;;;;;;;;;;5012339;28;20093;-58
2022/02/06 09:30:56;;;;;;;147.87;85.53;;;;;;;;;;5011448;28;20034;-59
2022/02/06 09:35:48;;;;;;;155.93;84.17;;;;;;;;;;5012048;28;20523;-58
2022/02/06 09:38:14;;;;;;;154.40;85.27;;;;;;;;;;5012106;28;20451;-60
2022/02/06 09:40:44;;;;;;;157.60;86.53;;;;;;;;;;5012076;28;20499;-59
2022/02/06 09:43:10;;;;;;;156.57;84.30;;;;;;;;;;5013306;28;20045;-58
2022/02/06 09:45:40;;;;;;;153.07;84.17;;;;;;;;;;5012319;28;20072;-59
2022/02/06 09:48:06;;;;;;;145.87;80.77;;;;;;;;;;5013031;28;20131;-59
2022/02/06 09:50:32;;;;;;;149.80;81.63;;;;;;;;;;5012676;28;20022;-59
2022/02/06 09:52:59;;;;;;;142.67;77.60;;;;;;;;;;5013152;28;20014;-58
2022/02/06 09:55:25;;;;;;;150.77;79.27;;;;;;;;;;5012623;28;20030;-59
2022/02/06 09:57:53;;;;;;;153.83;80.50;;;;;;;;;;5012719;28;20077;-60
2022/02/06 10:00:20;;;;;;;149.63;77.33;;;;;;;;;;5012320;28;20092;-60
2022/02/06 10:02:49;;;;;;;172.10;79.50;;;;;;;;;;5012643;28;20040;-60
2022/02/06 10:05:16;;;;;;;155.33;79.63;;;;;;;;;;5012102;28;20038;-60
2022/02/06 10:07:50;;;;;;;162.03;81.77;;;;;;;;;;5012962;28;20030;-60
2022/02/06 10:10:17;;;;;;;161.63;80.13;;;;;;;;;;5012281;28;20076;-60
2022/02/06 10:12:44;;;;;;;156.87;79.10;;;;;;;;;;5012751;28;20391;-60
2022/02/06 10:15:14;;;;;;;150.87;78.47;;;;;;;;;;5012100;28;20037;-60
2022/02/06 10:17:41;;;;;;;155.23;79.87;;;;;;;;;;5013051;28;20387;-60
2022/02/06 10:20:14;;;;;;;165.00;83.10;;;;;;;;;;5008286;28;20476;-60
2022/02/06 10:23:04;;;;;;;154.07;78.53;;;;;;;;;;4997279;28;20096;-60
2022/02/06 10:25:27;;;;;;;155.77;79.43;;;;;;;;;;5009976;28;20033;-61
2022/02/06 10:28:21;;;;;;;170.07;81.93;;;;;;;;;;5017223;28;20022;-60
2022/02/06 10:30:42;;;;;;;160.03;81.67;;;;;;;;;;5016418;28;20072;-60
2022/02/06 10:33:10;;;;;;;154.33;81.07;;;;;;;;;;5017121;28;20072;-60
2022/02/06 10:35:43;;;;;;;159.00;82.93;;;;;;;;;;5016451;28;20387;-60
2022/02/06 10:38:26;;;;;;;147.07;79.77;;;;;;;;;;5017007;28;20030;-59
2022/02/06 10:41:10;;;;;;;148.57;80.73;;;;;;;;;;5016029;28;20026;-59
2022/02/06 10:43:38;;;;;;;166.17;80.37;;;;;;;;;;5015040;28;20046;-60
2022/02/06 10:46:11;;;;;;;169.47;83.93;;;;;;;;;;5015665;28;20030;-60
2022/02/06 10:48:53;;;;;;;179.07;86.57;;;;;;;;;;5016700;28;20514;-60
2022/02/06 10:51:35;;;;;;;158.83;81.30;;;;;;;;;;5015970;28;20018;-60
2022/02/06 10:54:01;;;;;;;169.03;84.50;;;;;;;;;;5014347;28;20439;-61
2022/02/06 10:56:27;;;;;;;171.07;84.00;;;;;;;;;;5016193;28;20488;-61
2022/02/06 10:59:00;;;;;;;162.43;83.17;;;;;;;;;;5015347;28;20029;-61
2022/02/06 11:01:29;;;;;;;133.13;72.73;;;;;;;;;;5016101;28;20191;-60
2022/02/06 11:04:25;;;;;;;139.43;73.07;;;;;;;;;;5016771;28;20025;-61
2022/02/06 11:07:06;;;;;;;150.17;78.17;;;;;;;;;;5016772;28;20060;-61
2022/02/06 11:09:32;;;;;;;142.23;73.47;;;;;;;;;;5014833;28;20041;-61
2022/02/06 11:11:59;;;;;;;132.93;72.00;;;;;;;;;;5016492;28;20072;-61
2022/02/06 11:14:26;;;;;;;142.80;74.73;;;;;;;;;;5015296;28;20018;-61
2022/02/06 11:16:53;;;;;;;139.47;75.20;;;;;;;;;;5015882;28;20528;-61
2022/02/06 11:19:20;;;;;;;149.03;75.47;;;;;;;;;;5015416;28;20018;-60
2022/02/06 11:21:47;;;;;;;136.53;74.37;;;;;;;;;;5016214;28;20084;-60
2022/02/06 11:24:22;;;;;;;140.67;76.77;;;;;;;;;;5015467;28;20460;-60
2022/02/06 11:26:48;;;;;;;150.37;76.33;;;;;;;;;;5015035;28;20026;-60
2022/02/06 11:29:14;;;;;;;129.27;73.50;;;;;;;;;;5014788;28;20026;-60
2022/02/06 11:31:41;;;;;;;135.17;71.47;;;;;;;;;;5016024;28;20387;-61
2022/02/06 11:34:09;;;;;;;123.83;69.70;;;;;;;;;;5014738;28;20022;-61
2022/02/06 11:45:34;;;;;;;116.37;64.87;;;;;;;;;;5013029;28;20056;-60
2022/02/06 11:48:03;;;;;;;118.20;64.43;;;;;;;;;;5014907;28;20049;-60
2022/02/06 11:50:31;;;;;;;107.67;64.23;;;;;;;;;;4998974;28;20029;-61
2022/02/06 11:52:58;;;;;;;105.30;62.97;;;;;;;;;;5014158;28;20033;-60
2022/02/06 11:55:33;;;;;;;106.00;63.00;;;;;;;;;;5013914;28;20056;-60
2022/02/06 11:58:19;;;;;;;109.60;61.97;;;;;;;;;;5014954;28;20029;-61
2022/02/06 12:00:46;;;;;;;110.77;61.93;;;;;;;;;;5014268;28;20115;-61
2022/02/06 12:03:12;;;;;;;106.83;61.70;;;;;;;;;;5014031;28;20034;-60
2022/02/06 12:05:57;;;;;;;100.73;58.50;;;;;;;;;;5023520;28;20022;-60
2022/02/06 12:08:23;;;;;;;99.55;58.92;;;;;;;;;;5013974;28;20029;-61
2022/02/06 12:10:52;;;;;;;95.63;60.10;;;;;;;;;;5022554;28;20210;-61
2022/02/06 12:13:24;;;;;;;97.50;58.43;;;;;;;;;;5014392;28;20057;-60
2022/02/06 12:15:54;;;;;;;101.10;59.23;;;;;;;;;;5014133;28;20075;-60
2022/02/06 12:18:27;;;;;;;99.00;61.27;;;;;;;;;;5013759;28;20426;-60
2022/02/06 12:20:55;;;;;;;97.90;57.90;;;;;;;;;;5013840;28;20018;-61
2022/02/06 12:23:42;;;;;;;95.97;59.40;;;;;;;;;;5014219;28;20079;-60
2022/02/06 12:28:53;;;;;;;100.82;60.30;;;;;;;;;;5014902;28;20112;-60
2022/02/06 12:31:27;;;;;;;102.27;60.17;;;;;;;;;;5013217;28;20033;-60
2022/02/06 12:34:09;;;;;;;95.63;58.08;;;;;;;;;;5013664;28;20080;-59
2022/02/06 12:39:28;;;;;;;97.73;59.23;;;;;;;;;;5013684;28;20133;-60
2022/02/06 12:41:56;;;;;;;105.73;60.73;;;;;;;;;;5013585;28;20042;-61
2022/02/06 12:44:24;;;;;;;92.05;56.65;;;;;;;;;;5013472;28;20446;-60
2022/02/06 12:46:50;;;;;;;99.20;60.67;;;;;;;;;;5012768;28;20497;-60
2022/02/06 12:49:20;;;;;;;91.45;58.28;;;;;;;;;;5013717;28;20411;-60
2022/02/06 12:51:47;;;;;;;96.57;58.33;;;;;;;;;;5011743;28;20510;-61
2022/02/06 12:54:14;;;;;;;99.75;60.55;;;;;;;;;;5014212;28;20152;-61
2022/02/06 12:56:41;;;;;;;100.72;61.38;;;;;;;;;;5013126;28;20033;-61
2022/02/06 12:59:09;;;;;;;99.63;58.72;;;;;;;;;;5013982;28;20030;-61
2022/02/06 13:01:39;;;;;;;97.90;60.28;;;;;;;;;;5012747;28;20030;-61
2022/02/06 13:04:05;;;;;;;96.68;61.83;;;;;;;;;;5012100;28;20049;-61
2022/02/06 13:06:36;;;;;;;97.72;60.35;;;;;;;;;;5011859;28;20044;-61
2022/02/06 13:09:05;;;;;;;99.35;63.17;;;;;;;;;;5014046;28;20022;-61
2022/02/06 13:11:41;;;;;;;100.38;60.30;;;;;;;;;;5013190;28;20022;-61
2022/02/06 13:19:36;;;;;;;99.40;61.47;;;;;;;;;;5012922;28;20040;-61
2022/02/06 13:30:08;;;;;;;102.18;64.75;;;;;;;;;;5013067;28;20562;-61
2022/02/06 13:32:54;;;;;;;105.90;66.15;;;;;;;;;;4993765;28;20033;-61
2022/02/06 13:38:09;;;;;;;105.03;64.40;;;;;;;;;;5013487;28;20041;-61
2022/02/06 13:40:47;;;;;;;102.30;64.93;;;;;;;;;;5012641;28;20088;-61
2022/02/06 13:43:19;;;;;;;99.80;65.78;;;;;;;;;;5013667;28;20025;-61
2022/02/06 13:45:45;;;;;;;98.20;64.35;;;;;;;;;;5012409;28;20018;-61
2022/02/06 13:48:14;;;;;;;104.53;65.18;;;;;;;;;;5013401;28;20053;-60
2022/02/06 13:50:46;;;;;;;107.22;67.75;;;;;;;;;;5011936;28;20026;-61
2022/02/06 13:53:17;;;;;;;103.43;65.93;;;;;;;;;;5013322;28;20028;-61
2022/02/06 13:55:49;;;;;;;102.88;65.85;;;;;;;;;;5011910;28;20034;-62
2022/02/06 13:58:16;;;;;;;101.20;64.97;;;;;;;;;;5011869;28;20080;-61
2022/02/06 14:01:00;;;;;;;107.78;65.32;;;;;;;;;;5011013;28;20033;-61
2022/02/06 14:03:47;;;;;;;104.60;67.35;;;;;;;;;;5013015;28;20041;-61
2022/02/06 14:06:15;;;;;;;112.28;68.40;;;;;;;;;;5010722;28;20036;-61
2022/02/06 14:08:57;;;;;;;103.88;66.65;;;;;;;;;;4993456;28;20019;-61
2022/02/06 14:11:29;;;;;;;103.30;66.22;;;;;;;;;;4992184;28;20036;-61
2022/02/06 14:14:14;;;;;;;107.40;64.90;;;;;;;;;;4993185;28;20030;-61
2022/02/06 14:16:44;;;;;;;106.07;66.40;;;;;;;;;;5006244;28;20609;-60
2022/02/06 14:19:11;;;;;;;106.45;68.15;;;;;;;;;;5013033;28;20030;-60
2022/02/06 14:21:44;;;;;;;112.75;69.40;;;;;;;;;;5010671;28;20573;-61
2022/02/06 14:24:10;;;;;;;104.50;66.78;;;;;;;;;;5008751;28;20022;-60
2022/02/06 14:26:36;;;;;;;110.57;68.60;;;;;;;;;;5011804;28;20034;-60
2022/02/06 14:29:02;;;;;;;109.93;68.43;;;;;;;;;;5013231;28;20125;-61
2022/02/06 14:31:33;;;;;;;102.72;66.65;;;;;;;;;;5011758;28;20523;-60
2022/02/06 14:34:15;;;;;;;107.43;68.13;;;;;;;;;;5013078;28;20025;-61
2022/02/06 14:36:43;;;;;;;112.57;69.80;;;;;;;;;;5011232;28;20026;-60
2022/02/06 14:39:09;;;;;;;107.13;67.60;;;;;;;;;;5011406;28;20387;-60
2022/02/06 14:44:05;;;;;;;101.05;64.40;;;;;;;;;;5013106;28;20026;-61
2022/02/06 14:46:32;;;;;;;107.60;67.32;;;;;;;;;;5011662;28;20026;-60
2022/02/06 14:48:59;;;;;;;110.85;68.88;;;;;;;;;;5010549;28;20057;-60
2022/02/06 14:51:26;;;;;;;103.50;67.28;;;;;;;;;;5010107;28;20030;-61
2022/02/06 14:53:59;;;;;;;105.38;65.80;;;;;;;;;;5011947;28;20051;-60
2022/02/06 14:56:26;;;;;;;100.78;66.82;;;;;;;;;;5011197;28;20034;-60
2022/02/06 14:58:52;;;;;;;107.95;67.80;;;;;;;;;;5012775;28;20029;-60
2022/02/06 15:01:18;;;;;;;105.38;67.88;;;;;;;;;;5011662;28;20034;-60
2022/02/06 15:03:44;;;;;;;110.05;69.43;;;;;;;;;;5012539;28;20034;-61
2022/02/06 15:06:10;;;;;;;113.72;69.68;;;;;;;;;;5011424;28;20498;-61
2022/02/06 15:08:35;;;;;;;122.57;74.03;;;;;;;;;;5015802;28;20037;-61
2022/02/06 15:11:02;;;;;;;123.57;76.43;;;;;;;;;;5015404;28;20030;-60
2022/02/06 15:13:32;;;;;;;127.38;77.28;;;;;;;;;;5015994;28;20038;-61
2022/02/06 15:16:04;;;;;;;129.45;76.40;;;;;;;;;;5015648;28;20033;-60
2022/02/06 15:18:36;;;;;;;124.82;77.07;;;;;;;;;;5015015;28;20077;-60
2022/02/06 15:21:03;;;;;;;135.02;81.55;;;;;;;;;;5014971;28;20368;-60
2022/02/06 15:23:29;;;;;;;142.07;79.28;;;;;;;;;;5012668;28;20083;-60
2022/02/06 15:25:55;;;;;;;134.05;79.68;;;;;;;;;;4999467;28;20034;-61
2022/02/06 15:28:22;;;;;;;131.63;80.18;;;;;;;;;;5014454;28;20046;-60
2022/02/06 15:30:48;;;;;;;128.77;78.53;;;;;;;;;;5014410;28;20947;-61
2022/02/06 15:33:14;;;;;;;132.25;79.00;;;;;;;;;;5016034;28;20375;-61
2022/02/06 15:35:40;;;;;;;131.93;79.35;;;;;;;;;;5015159;28;20029;-60
2022/02/06 15:38:08;;;;;;;134.73;80.97;;;;;;;;;;5015784;28;20037;-61
2022/02/06 15:40:35;;;;;;;138.43;79.88;;;;;;;;;;5014847;28;20076;-61
2022/02/06 15:43:01;;;;;;;136.68;83.72;;;;;;;;;;5014419;28;20033;-61
2022/02/06 15:45:27;;;;;;;139.35;79.22;;;;;;;;;;5015528;28;20115;-61
2022/02/06 15:47:54;;;;;;;132.55;81.80;;;;;;;;;;5013613;28;20058;-61
2022/02/06 15:50:20;;;;;;;147.48;83.40;;;;;;;;;;5014626;28;20022;-60
2022/02/06 15:52:46;;;;;;;147.73;86.65;;;;;;;;;;5012327;28;20069;-61
2022/02/06 15:55:12;;;;;;;155.23;86.63;;;;;;;;;;5015893;28;20104;-61
2022/02/06 15:57:38;;;;;;;146.98;86.93;;;;;;;;;;5014653;28;20121;-61
2022/02/06 16:00:06;;;;;;;154.07;90.82;;;;;;;;;;5015795;28;20423;-61
2022/02/06 16:02:32;;;;;;;158.63;90.70;;;;;;;;;;5014563;28;20049;-61
2022/02/06 16:04:58;;;;;;;147.93;88.35;;;;;;;;;;5010624;28;20034;-60
2022/02/06 16:07:24;;;;;;;158.25;92.15;;;;;;;;;;5024237;28;20029;-60
2022/02/06 16:09:50;;;;;;;145.18;86.20;;;;;;;;;;5020523;28;20476;-62
2022/02/06 16:12:16;;;;;;;150.75;91.40;;;;;;;;;;5005832;28;20514;-61
2022/02/06 16:14:43;;;;;;;152.40;89.22;;;;;;;;;;5013888;28;20033;-60
2022/02/06 16:17:11;;;;;;;145.30;88.10;;;;;;;;;;5013712;28;20037;-61
2022/02/06 16:19:37;;;;;;;147.00;89.97;;;;;;;;;;5014318;28;20120;-61
2022/02/06 16:22:08;;;;;;;138.43;83.67;;;;;;;;;;5014419;28;20038;-61
2022/02/06 16:24:34;;;;;;;138.93;84.47;;;;;;;;;;5012210;28;20065;-61
2022/02/06 16:27:00;;;;;;;139.57;82.83;;;;;;;;;;5012733;28;20030;-61
2022/02/06 16:29:26;;;;;;;138.18;84.38;;;;;;;;;;5012717;28;20029;-61
2022/02/06 16:31:53;;;;;;;135.95;81.07;;;;;;;;;;5011938;28;20387;-61
2022/02/06 16:34:19;;;;;;;126.70;77.50;;;;;;;;;;5012615;28;20030;-61
2022/02/06 16:36:45;;;;;;;125.60;74.70;;;;;;;;;;5009121;28;20045;-62
2022/02/06 16:39:13;;;;;;;130.63;76.70;;;;;;;;;;5013068;28;20022;-60
2022/02/06 16:41:39;;;;;;;122.87;73.03;;;;;;;;;;5007789;28;20033;-59
2022/02/06 16:44:05;;;;;;;121.03;75.97;;;;;;;;;;5012958;28;20030;-60
2022/02/06 16:46:31;;;;;;;124.67;76.83;;;;;;;;;;5014060;28;20092;-60
2022/02/06 16:48:57;;;;;;;138.30;80.77;;;;;;;;;;5013468;28;20050;-61
2022/02/06 16:51:24;;;;;;;137.47;80.27;;;;;;;;;;5011729;28;20033;-61
2022/02/06 16:53:50;;;;;;;134.00;81.80;;;;;;;;;;5012180;28;20044;-61